Flight Track Log - Related Links

Times and Time Zones

All times are in EDT time to prevent confusion due to time zone crossing. See the JBU51 flight status page for this flight to view local times or setup timezone preferences in your user account.

Time Position Orientation Groundspeed Altitude Reporting Facility
EDT Latitude Longitude Course Direction KTS MPH feet Rate Location/Type
Mon 03:10:38 PM 44.2608 -73.2025 197° South 281 323 10,100  Level Boston Center
Mon 03:11:38 PM 44.1814 -73.2361 197° South 293 337 11,700 1,950 Climbing Boston Center
Mon 03:12:38 PM 44.0875 -73.2753 197° South 330 380 14,000 2,433 Climbing Boston Center
Mon 03:14:38 PM 43.8806 -73.3589 196° South 384 442 19,000 2,350 Climbing Boston Center
Mon 03:16:38 PM 43.6506 -73.4500 196° South 425 489 23,400 2,100 Climbing Boston Center
Mon 03:17:38 PM 43.5314 -73.4967 196° South 440 506 25,300 1,650 Climbing Boston Center
Mon 03:18:38 PM 43.4100 -73.5433 196° South 447 514 26,700 850 Climbing Boston Center
Mon 03:19:38 PM 43.2825 -73.5950 196° South 460 529 27,000 433 Climbing Boston Center
Mon 03:21:38 PM 43.0269 -73.6956 196° South 476 548 28,000 333 Climbing Boston Center
Mon 03:22:38 PM 42.8994 -73.7439 196° South 482 555 28,000  Level Boston Center
Mon 03:23:38 PM 42.7717 -73.7950 196° South 482 555 28,000  Level Boston Center
Mon 03:24:38 PM 42.6631 -73.8067 185° South 482 555 28,000  Level Boston Center
Mon 03:25:38 PM 42.5172 -73.8119 182° South 482 555 28,000  Level Boston Center
Mon 03:26:38 PM 42.3881 -73.8147 182° South 482 555 28,000  Level Boston Center
Mon 03:27:00 PM 44.3303 -73.1778 180° South  Level Estimated
Mon 03:27:38 PM 42.2628 -73.8175 180° South 471 542 28,000  Level Boston Center
Mon 03:28:38 PM 42.1356 -73.8175 180° South 460 529 28,000 -257 Level Boston Center
Mon 03:30:00 PM 41.9929 -73.8012 182° South  Level FlightAware Approximate
Mon 03:31:55 PM 41.7136 -73.8222 180° South 456 525 26,900  Level New York Center
Mon 03:32:55 PM 41.6039 -73.8783 201° Southwest 458 527 24,600 -2,085 Descending New York Center
Mon 03:33:53 PM 41.5208 -73.9436 210° Southwest 422 486 22,800 -1,866 Descending New York Center
Mon 03:34:54 PM 41.4375 -74.0200 215° Southwest 394 453 20,900 -1,366 Descending New York Center
Mon 03:35:56 PM 41.3564 -74.0933 214° Southwest 379 436 20,000 -450 Descending New York Center
Mon 03:36:54 PM 41.2753 -74.1639 213° Southwest 359 413 20,000  Level New York Center
Mon 03:38:00 PM 41.1749 -74.2428 211° Southwest  Level FlightAware Approximate
Mon 03:39:56 PM 41.1872 -74.5261 159° South 352 405 20,000  Level New York Center
Mon 03:41:00 PM 41.1088 -74.4179 134° Southeast  Level Estimated
Mon 03:41:55 PM 41.0708 -74.6517 134° Southeast 264 304 20,000  Level New York Center
Mon 03:42:53 PM 41.0306 -74.5447 117° Southeast 208 239 20,000 -508 Level New York Center
Mon 03:43:53 PM 40.9903 -74.4300 115° Southeast 246 283 19,000 -550 Descending New York Center
Mon 03:44:42 PM 40.9667 -74.3500 111° Southeast 327 376 19,000 -264 Level New York TRACON
Mon 03:45:00 PM 40.7091 -73.8212 159° South  Level FlightAware Approximate
Mon 03:46:55 PM 40.8494 -74.1289 125° Southeast 330 380 18,200  Level New York Center
Mon 03:48:00 PM 40.7834 -74.0182 143° Southeast  Level Estimated
Mon 03:48:56 PM 40.7461 -73.9458 143° Southeast 313 360 14,800  Level New York Center
Mon 03:49:54 PM 40.6983 -73.8586 126° Southeast 302 348 12,900 -857 Descending New York Center
Mon 03:50:55 PM 40.6486 -73.7689 126° Southeast 302 348 13,100 -280 Climbing New York Center
Mon 03:51:41 PM 40.6167 -73.7000 121° Southeast 293 337 12,400 -561 Descending New York TRACON
Mon 03:52:42 PM 40.5667 -73.6167 128° Southeast 280 322 12,100 -595 Descending New York TRACON
Mon 03:53:42 PM 40.5000 -73.5667 150° Southeast 283 326 11,200 -1,450 Descending New York TRACON
Mon 03:54:42 PM 40.4167 -73.6000 197° South 287 330 9,200 -1,767 Descending New York TRACON
Mon 03:56:42 PM 40.3333 -73.7667 237° Southwest 272 313 5,900 -1,600 Descending New York TRACON
Mon 03:57:42 PM 40.3000 -73.8500 242° Southwest 262 302 4,400 -1,450 Descending New York TRACON
Mon 03:58:42 PM 40.3167 -73.9167 288° West 266 306 3,000 -375 Descending New York TRACON
Mon 04:01:42 PM 40.4667 -73.9833 341° North 188 216 2,900 -25 Descending New York TRACON
Mon 04:02:42 PM 40.5167 -73.9833 360° North 185 213 2,900 -400 Level New York TRACON
Mon 04:05:42 PM 40.6333 -73.8833 33° Northeast 156 180 1,300 -500 Descending New York TRACON
Mon 04:06:42 PM 40.6667 -73.8500 37° Northeast 124 143 900 -400 Descending New York TRACON

Login

Don't have an account? Register now (free) for customized features, flight alerts, and more!